Benalla, Victoria

6:52 PM AEST on August 01, 2015 (GMT +1000)
Witt Street, | | Change Station
CLOSE
Current Station
Personal Weather Station
Location: Benalla, VICTORIA
Elevation: 558 ft
Nearby Weather Stations

Elev 558 ft 36.54 °S, 146.00 °E | Updated 9 minutes ago

Light Rain Showers
Light Showers Rain
49.8 °F
Feels Like 50 °F
N
2.7
Wind Variable Wind from SW

Today
High -- | Low -- °F
--% Chance of Precip.
Yesterday
High -- | Low -- °F
Precip. -- in
7:14 AM 5:30 PM
Full, 99% visible
Pressure 29.98 in
Visibility 6.2 miles
Clouds Scattered Clouds 300 ft
Mostly Cloudy 900 ft
Mostly Cloudy 2400 ft
Windchill 50 °F
Dew Point 50 °F
Humidity 99%
Rainfall 0.91 in
Snow Depth Not available.
UV 0 out of 12
Pollen Not available.
Air Quality Not available.
Flu Activity Not available.
SPECI YWGT 010833Z AUTO 35009KT 9999 -SHRA SCT003 BKN009 BKN024 10/10 Q1015

More Conditions Fewer Conditions

Pressure 29.98 in
Visibility 6.2 miles
Clouds Scattered Clouds 300 ft
Mostly Cloudy 900 ft
Mostly Cloudy 2400 ft
Windchill 50 °F
Dew Point 50 °F
Humidity 99%
Rainfall 0.91 in
Snow Depth Not available.
UV 0 out of 12
Pollen Not available.
Air Quality Not available.
Flu Activity Not available.
SPECI YWGT 010833Z AUTO 35009KT 9999 -SHRA SCT003 BKN009 BKN024 10/10 Q1015

More Conditions Fewer Conditions

10-Day Weather Forecast

×

Almanac

Astronomy

Aug. 01, 2015 Rise Set
Actual Time
Civil Twilight
Nautical Twilight
Astronomical Twilight
Moon
Length of Visible Light
Length of Day
Tomorrow will be .
, % of the Moon is Illuminated

Today's Extremes

Country Highs Country Lows

Community

WunderPhotos

Upload Photos

1,842,905 photos uploaded!

WunderBlogs® & News

Nearby

Air Quality

  Air Quality AQ Index Pollutant
Not available.

Snow Depth

Station Depth Elevation

Earthquake Activity

City Distance Mag. Time & Date
Minimum magnitude displayed is 2.5.

Coastal Water Temperatures

Place Temperature

Stations

Nearby Weather Stations

Station Location Temp. Windchill Dew Point Humidity Wind Precip. Elev Updated Type